Terminal Aerodrome Forecast
Issued by NWS Wilmington, OH

Current Version | Previous Version | Graphics & Text | Print | Product List | Glossary Off
Versions: 1 2 3 4 5 6 7 8 9 10 11 12 13 14 15 16 17 18 19 20 21 22 23 24 25 26 27

410
FTUS41 KILN 011757
TAFCMH
TAF
KCMH 011757Z 0118/0218 25006KT P6SM FEW025 BKN035
     FM011900 28006KT P6SM VCSH SCT025 BKN040
     FM012300 VRB03KT P6SM SCT050 BKN080
     FM020400 VRB03KT P6SM VCSH BKN050
      TEMPO 0206/0209 -SHRA
     FM020900 30004KT P6SM VCSH BKN018
     FM021400 33006KT P6SM BKN025=

USA.gov is the U.S. government's official web portal to all federal, state and local government web resources and services.